createdAt,value
2022-12-25T00:00:20.391Z,8.74
2022-12-25T00:05:23.353Z,8.69
2022-12-25T00:10:25.903Z,8.57
2022-12-25T00:15:27.738Z,8.53
2022-12-25T00:20:29.580Z,8.51
2022-12-25T00:25:31.263Z,8.49
2022-12-25T00:30:32.969Z,8.46
2022-12-25T00:35:34.562Z,8.41
2022-12-25T00:40:44.143Z,8.39
2022-12-25T00:45:55.101Z,8.40
2022-12-25T00:50:58.763Z,8.31
2022-12-25T00:56:03.329Z,8.38
2022-12-25T01:01:05.052Z,8.38
2022-12-25T01:06:08.455Z,8.42
2022-12-25T01:11:10.296Z,8.41
2022-12-25T01:16:12.417Z,8.54
2022-12-25T01:21:17.816Z,8.59
2022-12-25T01:26:21.904Z,8.70
2022-12-25T01:31:24.574Z,8.61
2022-12-25T01:36:26.802Z,8.50
2022-12-25T01:41:28.427Z,8.34
2022-12-25T01:46:31.375Z,8.13
2022-12-25T01:51:37.005Z,8.04
2022-12-25T01:56:42.176Z,7.98
2022-12-25T02:01:44.280Z,7.91
2022-12-25T02:06:48.279Z,7.89
2022-12-25T02:11:59.075Z,7.88
2022-12-25T02:17:04.724Z,7.87
2022-12-25T02:22:34.984Z,7.80
2022-12-25T02:28:10.764Z,7.75
2022-12-25T02:33:41.533Z,7.54
2022-12-25T02:39:21.027Z,7.57
2022-12-25T02:44:43.905Z,7.60
2022-12-25T02:50:05.165Z,7.64
2022-12-25T02:55:30.790Z,7.66
2022-12-25T03:00:56.008Z,7.64
2022-12-25T03:06:20.566Z,7.65
2022-12-25T03:11:31.067Z,7.65
2022-12-25T03:16:51.414Z,7.69
2022-12-25T03:22:13.788Z,7.58
2022-12-25T03:27:16.306Z,7.52
2022-12-25T03:32:35.979Z,7.55
2022-12-25T03:38:09.345Z,7.57
2022-12-25T03:43:49.191Z,7.60
2022-12-25T03:49:17.958Z,7.55
2022-12-25T03:54:43.447Z,7.49
2022-12-25T04:00:03.689Z,7.51
2022-12-25T04:05:29.624Z,7.54
2022-12-25T04:10:49.601Z,7.36
2022-12-25T04:16:11.556Z,7.22
2022-12-25T04:21:31.968Z,7.14
2022-12-25T04:26:52.126Z,7.10
2022-12-25T04:32:15.258Z,7.22
2022-12-25T04:37:17.248Z,7.24
2022-12-25T04:42:19.300Z,7.24
2022-12-25T04:47:20.920Z,7.25
2022-12-25T04:52:22.584Z,7.26
2022-12-25T04:57:24.208Z,7.26
2022-12-25T05:02:26.407Z,7.24
2022-12-25T05:07:28.424Z,7.19
2022-12-25T05:12:30.042Z,7.19
2022-12-25T05:17:31.660Z,7.15
2022-12-25T05:22:33.464Z,7.09
2022-12-25T05:27:35.281Z,7.04
2022-12-25T05:32:36.902Z,7.01
2022-12-25T05:37:38.507Z,6.94
2022-12-25T05:42:40.088Z,6.85
2022-12-25T05:47:41.950Z,6.82
2022-12-25T05:52:44.713Z,6.77
2022-12-25T05:57:46.494Z,6.77
2022-12-25T06:02:48.315Z,6.79
2022-12-25T06:07:50.216Z,6.80
2022-12-25T06:12:51.808Z,6.59
2022-12-25T06:17:53.418Z,6.46
2022-12-25T06:22:55.059Z,6.45
2022-12-25T06:27:56.708Z,6.52
2022-12-25T06:33:01.815Z,6.59
2022-12-25T06:38:03.414Z,6.62
2022-12-25T06:43:05.074Z,6.59
2022-12-25T06:48:06.704Z,6.60
2022-12-25T06:53:08.327Z,6.65
2022-12-25T06:58:09.964Z,6.69
2022-12-25T07:03:19.139Z,6.73
2022-12-25T07:08:20.835Z,6.79
2022-12-25T07:13:22.426Z,6.82
2022-12-25T07:18:24.059Z,6.84
2022-12-25T07:23:26.924Z,6.15
2022-12-25T07:28:29.616Z,6.34
2022-12-25T07:33:31.833Z,6.25
2022-12-25T07:38:33.891Z,6.36
2022-12-25T07:43:35.783Z,6.58
2022-12-25T07:48:37.640Z,6.51
2022-12-25T07:53:39.709Z,6.57
2022-12-25T07:58:41.927Z,6.64
2022-12-25T08:03:44.499Z,6.55
2022-12-25T08:08:46.472Z,6.48
2022-12-25T08:13:48.132Z,6.50
2022-12-25T08:18:49.762Z,6.55
2022-12-25T08:23:51.408Z,6.54
2022-12-25T08:28:53.059Z,6.64
2022-12-25T08:33:57.710Z,6.69
2022-12-25T08:39:02.925Z,6.75
2022-12-25T08:44:06.389Z,6.76
2022-12-25T08:49:08.260Z,6.73
2022-12-25T08:54:09.876Z,6.75
2022-12-25T08:59:11.811Z,6.80
2022-12-25T09:04:13.442Z,6.78
2022-12-25T09:09:15.241Z,6.72
2022-12-25T09:14:16.848Z,6.73
2022-12-25T09:19:18.744Z,6.81
2022-12-25T09:24:20.935Z,6.86
2022-12-25T09:29:22.624Z,6.97
2022-12-25T09:34:24.221Z,7.12
2022-12-25T09:39:27.122Z,7.28
2022-12-25T09:44:33.018Z,7.49
2022-12-25T09:49:52.843Z,7.71
2022-12-25T09:55:19.651Z,7.95
2022-12-25T10:00:25.794Z,8.15
2022-12-25T10:05:48.072Z,8.29
2022-12-25T10:11:01.263Z,8.51
2022-12-25T10:16:24.321Z,8.80
2022-12-25T10:21:28.052Z,9.07
2022-12-25T10:26:31.705Z,9.26
2022-12-25T10:31:37.161Z,9.34
2022-12-25T10:36:38.902Z,9.44
2022-12-25T10:42:11.366Z,9.57
2022-12-25T10:47:30.377Z,9.65
2022-12-25T10:52:32.034Z,9.78
2022-12-25T10:57:45.509Z,10.03
2022-12-25T11:02:47.603Z,10.29
2022-12-25T11:07:56.099Z,10.43
2022-12-25T11:12:59.979Z,10.54
2022-12-25T11:18:02.301Z,10.64
2022-12-25T11:23:10.728Z,10.74
2022-12-25T11:28:13.438Z,10.85
2022-12-25T11:33:16.427Z,10.84
2022-12-25T11:38:18.253Z,10.80
2022-12-25T11:43:29.786Z,10.72
2022-12-25T11:48:41.490Z,10.68
2022-12-25T11:53:51.075Z,10.67
2022-12-25T11:59:02.703Z,10.73
2022-12-25T12:04:12.311Z,10.80
2022-12-25T12:09:42.168Z,10.85
2022-12-25T12:15:08.729Z,10.94
2022-12-25T12:20:26.358Z,10.90
2022-12-25T12:25:30.092Z,10.98
2022-12-25T12:30:35.524Z,11.05
2022-12-25T12:35:40.031Z,11.12
2022-12-25T12:40:51.789Z,11.14
2022-12-25T12:46:16.150Z,11.12
2022-12-25T12:51:35.500Z,11.03
2022-12-25T12:56:37.337Z,11.07
2022-12-25T13:01:47.999Z,11.06
2022-12-25T13:06:58.803Z,11.02
2022-12-25T13:12:06.622Z,10.98
2022-12-25T13:17:08.929Z,10.92
2022-12-25T13:22:31.279Z,10.87
2022-12-25T13:27:39.754Z,10.69
2022-12-25T13:32:43.019Z,10.63
2022-12-25T13:37:45.318Z,10.56
2022-12-25T13:42:49.297Z,10.53
2022-12-25T13:47:55.532Z,10.47
2022-12-25T13:53:10.596Z,10.38
2022-12-25T13:58:22.649Z,10.32
2022-12-25T14:03:24.365Z,10.23
2022-12-25T14:08:31.535Z,10.10
2022-12-25T14:13:39.790Z,10.01
2022-12-25T14:18:51.637Z,9.92
2022-12-25T14:23:53.578Z,9.83
2022-12-25T14:29:17.260Z,9.67
2022-12-25T14:34:24.474Z,9.57
2022-12-25T14:39:38.668Z,9.49
2022-12-25T14:44:41.037Z,9.37
2022-12-25T14:49:43.232Z,9.30
2022-12-25T14:54:48.110Z,9.22
2022-12-25T14:59:57.768Z,9.08
2022-12-25T15:04:59.426Z,8.87
2022-12-25T15:10:36.482Z,8.56
2022-12-25T15:15:22.828Z,8.35
2022-12-25T15:20:30.599Z,8.21
2022-12-25T15:25:32.508Z,8.09
2022-12-25T15:30:35.523Z,7.98
2022-12-25T15:35:39.002Z,7.85
2022-12-25T15:40:41.121Z,7.76
2022-12-25T15:45:42.827Z,7.71
2022-12-25T15:50:46.669Z,7.71
2022-12-25T15:55:49.411Z,7.66
2022-12-25T16:00:51.228Z,7.64
2022-12-25T16:05:53.032Z,7.55
2022-12-25T16:10:54.872Z,7.48
2022-12-25T16:15:57.365Z,7.49
2022-12-25T16:20:59.445Z,7.52
2022-12-25T16:26:01.094Z,7.53
2022-12-25T16:31:02.967Z,7.74
2022-12-25T16:36:04.887Z,7.78
2022-12-25T16:41:06.951Z,7.84
2022-12-25T16:46:10.914Z,7.98
2022-12-25T16:51:21.928Z,7.96
2022-12-25T16:56:28.348Z,8.04
2022-12-25T17:01:30.353Z,7.92
2022-12-25T17:06:32.392Z,7.99
2022-12-25T17:11:34.294Z,7.89
2022-12-25T17:16:37.916Z,7.99
2022-12-25T17:21:39.675Z,7.98
2022-12-25T17:26:42.013Z,8.15
2022-12-25T17:31:43.843Z,8.16
2022-12-25T17:36:45.744Z,8.24
2022-12-25T17:41:52.113Z,8.20
2022-12-25T17:46:53.857Z,8.22
2022-12-25T17:51:55.838Z,8.16
2022-12-25T17:56:57.504Z,8.20
2022-12-25T18:01:59.436Z,8.23
2022-12-25T18:07:01.166Z,8.19
2022-12-25T18:12:03.063Z,8.16
2022-12-25T18:17:04.679Z,8.11
2022-12-25T18:22:06.392Z,8.12
2022-12-25T18:27:08.107Z,8.11
2022-12-25T18:32:09.861Z,8.17
2022-12-25T18:37:11.482Z,8.09
2022-12-25T18:42:31.663Z,8.10
2022-12-25T18:47:33.730Z,8.15
2022-12-25T18:52:49.712Z,8.10
2022-12-25T18:57:53.620Z,8.05
2022-12-25T19:02:58.372Z,8.05
2022-12-25T19:08:00.233Z,7.98
2022-12-25T19:13:01.880Z,7.90
2022-12-25T19:18:03.637Z,7.89
2022-12-25T19:23:05.618Z,7.91
2022-12-25T19:28:07.242Z,7.91
2022-12-25T19:33:17.250Z,7.89
2022-12-25T19:38:20.232Z,7.82
2022-12-25T19:43:21.883Z,7.86
2022-12-25T19:48:24.154Z,7.86
2022-12-25T19:53:26.020Z,7.88
2022-12-25T19:58:27.780Z,7.92
2022-12-25T20:03:29.505Z,7.91
2022-12-25T20:08:31.764Z,7.95
2022-12-25T20:13:33.359Z,8.01
2022-12-25T20:18:35.070Z,8.00
2022-12-25T20:23:37.062Z,7.98
2022-12-25T20:28:41.659Z,7.94
2022-12-25T20:33:43.643Z,7.96
2022-12-25T20:38:45.585Z,7.98
2022-12-25T20:43:47.737Z,7.96
2022-12-25T20:48:49.584Z,7.93
2022-12-25T20:53:52.223Z,7.96
2022-12-25T20:58:55.812Z,7.97
2022-12-25T21:03:58.469Z,7.93
2022-12-25T21:09:00.212Z,7.86
2022-12-25T21:14:01.813Z,7.77
2022-12-25T21:19:03.709Z,7.65
2022-12-25T21:24:05.561Z,7.56
2022-12-25T21:29:07.629Z,7.45
2022-12-25T21:34:09.253Z,7.32
2022-12-25T21:39:11.485Z,7.23
2022-12-25T21:44:13.302Z,7.07
2022-12-25T21:49:34.859Z,6.91
2022-12-25T21:54:36.772Z,6.71
2022-12-25T21:59:38.498Z,6.67
2022-12-25T22:04:40.182Z,6.74
2022-12-25T22:09:44.137Z,6.76
2022-12-25T22:14:56.673Z,6.81
2022-12-25T22:19:59.144Z,6.91
2022-12-25T22:25:02.660Z,6.93
2022-12-25T22:30:09.408Z,6.99
2022-12-25T22:35:12.425Z,7.02
2022-12-25T22:40:16.876Z,7.09
2022-12-25T22:45:18.705Z,7.21
2022-12-25T22:50:20.744Z,7.27
2022-12-25T22:55:22.645Z,7.29
2022-12-25T23:00:24.370Z,7.39
2022-12-25T23:05:26.003Z,7.43
2022-12-25T23:10:28.051Z,7.44
2022-12-25T23:15:30.044Z,7.51
2022-12-25T23:20:51.156Z,7.53
2022-12-25T23:26:08.012Z,7.56
2022-12-25T23:31:09.842Z,7.61
2022-12-25T23:36:11.719Z,7.64
2022-12-25T23:41:13.470Z,7.64
2022-12-25T23:46:15.377Z,7.67
2022-12-25T23:51:17.035Z,7.71
2022-12-25T23:56:18.755Z,7.69
